createdAt,value
2019-04-10T00:01:25.670Z,11.40
2019-04-10T00:03:55.128Z,11.40
2019-04-10T00:06:25.741Z,11.40
2019-04-10T00:08:55.462Z,11.40
2019-04-10T00:11:25.158Z,11.40
2019-04-10T00:13:55.321Z,11.40
2019-04-10T00:16:24.799Z,11.40
2019-04-10T00:18:54.493Z,11.40
2019-04-10T00:21:25.092Z,11.30
2019-04-10T00:23:55.575Z,11.30
2019-04-10T00:26:25.778Z,11.30
2019-04-10T00:28:56.054Z,11.30
2019-04-10T00:31:26.342Z,11.30
2019-04-10T00:33:57.252Z,11.30
2019-04-10T00:36:27.476Z,11.20
2019-04-10T00:38:57.995Z,11.20
2019-04-10T00:41:28.402Z,11.20
2019-04-10T00:43:59.355Z,11.20
2019-04-10T00:46:29.074Z,11.20
2019-04-10T00:48:58.694Z,11.20
2019-04-10T00:51:28.562Z,11.10
2019-04-10T00:53:59.342Z,11.10
2019-04-10T00:56:28.754Z,11.10
2019-04-10T00:58:59.549Z,11.10
2019-04-10T01:01:29.861Z,11.00
2019-04-10T01:04:00.223Z,11.00
2019-04-10T01:06:30.416Z,11.00
2019-04-10T01:08:59.972Z,10.90
2019-04-10T01:11:30.747Z,10.90
2019-04-10T01:14:01.156Z,10.80
2019-04-10T01:16:31.358Z,10.80
2019-04-10T01:19:01.728Z,10.70
2019-04-10T01:21:31.170Z,10.70
2019-04-10T01:24:01.430Z,10.70
2019-04-10T01:26:31.621Z,10.60
2019-04-10T01:29:01.395Z,10.60
2019-04-10T01:31:30.993Z,10.60
2019-04-10T01:34:01.048Z,10.60
2019-04-10T01:36:31.138Z,10.50
2019-04-10T01:39:00.712Z,10.50
2019-04-10T01:41:30.083Z,10.50
2019-04-10T01:43:59.459Z,10.40
2019-04-10T01:46:28.838Z,10.40
2019-04-10T01:48:58.216Z,10.30
2019-04-10T01:51:27.595Z,10.30
2019-04-10T01:53:56.973Z,10.20
2019-04-10T01:56:31.674Z,10.20
2019-04-10T01:58:57.450Z,10.10
2019-04-10T02:01:32.488Z,10.10
2019-04-10T02:04:02.641Z,10.10
2019-04-10T02:06:32.078Z,10.00
2019-04-10T02:09:02.567Z,10.00
2019-04-10T02:11:32.268Z,9.90
2019-04-10T02:14:01.768Z,9.90
2019-04-10T02:16:31.127Z,9.80
2019-04-10T02:19:01.634Z,9.80
2019-04-10T02:21:31.816Z,9.70
2019-04-10T02:24:01.218Z,9.70
2019-04-10T02:26:31.559Z,9.70
2019-04-10T02:29:01.717Z,9.70
2019-04-10T02:31:32.001Z,9.70
2019-04-10T02:34:01.776Z,9.70
2019-04-10T02:36:31.666Z,9.60
2019-04-10T02:39:13.462Z,9.60
2019-04-10T02:41:34.471Z,9.60
2019-04-10T02:44:04.855Z,9.60
2019-04-10T02:46:34.870Z,9.60
2019-04-10T02:49:06.000Z,9.60
2019-04-10T02:51:35.895Z,9.50
2019-04-10T02:54:05.822Z,9.50
2019-04-10T02:56:36.528Z,9.50
2019-04-10T02:59:07.413Z,9.50
2019-04-10T03:01:37.950Z,9.40
2019-04-10T03:04:09.042Z,9.40
2019-04-10T03:06:39.521Z,9.30
2019-04-10T03:09:26.042Z,9.30
2019-04-10T03:11:41.975Z,9.30
2019-04-10T03:14:12.527Z,9.20
2019-04-10T03:16:42.327Z,9.10
2019-04-10T03:19:11.731Z,9.00
2019-04-10T03:21:41.089Z,9.00
2019-04-10T03:24:10.519Z,8.90
2019-04-10T03:26:39.875Z,8.80
2019-04-10T03:29:09.265Z,8.80
2019-04-10T03:31:41.259Z,8.80
2019-04-10T03:34:16.807Z,8.70
2019-04-10T03:36:47.514Z,8.70
2019-04-10T03:39:17.418Z,8.60
2019-04-10T03:41:46.821Z,8.60
2019-04-10T03:44:16.709Z,8.50
2019-04-10T03:46:46.962Z,8.50
2019-04-10T03:49:16.592Z,8.50
2019-04-10T03:51:47.025Z,8.40
2019-04-10T03:54:16.420Z,8.40
2019-04-10T03:56:45.785Z,8.40
2019-04-10T03:59:15.894Z,8.40
2019-04-10T04:01:45.324Z,8.30
2019-04-10T04:04:15.451Z,8.30
2019-04-10T04:06:45.986Z,8.20
2019-04-10T04:09:16.223Z,8.20
2019-04-10T04:11:46.151Z,8.20
2019-04-10T04:14:16.459Z,8.20
2019-04-10T04:16:46.829Z,8.20
2019-04-10T04:19:17.635Z,8.10
2019-04-10T04:21:48.079Z,8.10
2019-04-10T04:24:17.914Z,8.00
2019-04-10T04:26:48.689Z,8.00
2019-04-10T04:29:18.492Z,8.00
2019-04-10T04:31:48.524Z,8.00
2019-04-10T04:34:18.654Z,7.90
2019-04-10T04:36:49.127Z,7.90
2019-04-10T04:39:25.693Z,7.90
2019-04-10T04:41:50.113Z,7.90
2019-04-10T04:44:20.266Z,7.90
2019-04-10T04:46:50.602Z,7.80
2019-04-10T04:49:20.640Z,7.80
2019-04-10T04:51:50.568Z,7.80
2019-04-10T04:54:21.328Z,7.80
2019-04-10T04:56:50.715Z,7.80
2019-04-10T04:59:20.553Z,7.80
2019-04-10T05:01:50.057Z,7.70
2019-04-10T05:04:19.464Z,7.70
2019-04-10T05:06:49.857Z,7.70
2019-04-10T05:09:30.383Z,7.70
2019-04-10T05:11:51.046Z,7.70
2019-04-10T05:14:21.592Z,7.60
2019-04-10T05:16:52.063Z,7.60
2019-04-10T05:19:21.567Z,7.60
2019-04-10T05:21:51.928Z,7.60
2019-04-10T05:24:22.016Z,7.50
2019-04-10T05:26:51.464Z,7.50
2019-04-10T05:29:21.660Z,7.50
2019-04-10T05:31:51.534Z,7.50
2019-04-10T05:34:21.894Z,7.50
2019-04-10T05:36:51.770Z,7.40
2019-04-10T05:39:22.344Z,7.40
2019-04-10T05:41:52.106Z,7.40
2019-04-10T05:44:21.458Z,7.40
2019-04-10T05:46:50.839Z,7.40
2019-04-10T05:49:20.666Z,7.40
2019-04-10T05:51:50.179Z,7.40
2019-04-10T05:54:20.669Z,7.40
2019-04-10T05:56:50.939Z,7.50
2019-04-10T05:59:20.300Z,7.50
2019-04-10T06:01:50.566Z,7.50
2019-04-10T06:04:20.877Z,7.60
2019-04-10T06:06:50.629Z,7.70
2019-04-10T06:09:20.586Z,7.80
2019-04-10T06:11:50.075Z,7.90
2019-04-10T06:14:19.431Z,7.90
2019-04-10T06:16:49.252Z,8.00
2019-04-10T06:19:19.988Z,8.10
2019-04-10T06:21:50.396Z,8.20
2019-04-10T06:24:20.408Z,8.20
2019-04-10T06:26:50.136Z,8.30
2019-04-10T06:29:19.616Z,8.30
2019-04-10T06:31:49.370Z,8.40
2019-04-10T06:34:18.983Z,8.50
2019-04-10T06:36:49.441Z,8.60
2019-04-10T06:39:18.821Z,8.70
2019-04-10T06:41:48.758Z,8.90
2019-04-10T06:44:19.291Z,9.00
2019-04-10T06:46:49.106Z,9.20
2019-04-10T06:49:18.684Z,9.40
2019-04-10T06:51:48.124Z,9.50
2019-04-10T06:54:17.500Z,9.70
2019-04-10T06:56:48.545Z,9.80
2019-04-10T06:59:18.366Z,10.00
2019-04-10T07:01:52.600Z,10.10
2019-04-10T07:04:21.948Z,10.20
2019-04-10T07:06:58.719Z,10.20
2019-04-10T07:09:25.194Z,10.20
2019-04-10T07:11:58.512Z,10.20
2019-04-10T07:14:25.131Z,10.20
2019-04-10T07:16:54.968Z,10.20
2019-04-10T07:19:24.520Z,10.10
2019-04-10T07:21:53.894Z,10.10
2019-04-10T07:24:23.514Z,10.00
2019-04-10T07:26:53.352Z,10.00
2019-04-10T07:29:26.643Z,10.10
2019-04-10T07:31:54.980Z,10.10
2019-04-10T07:34:26.951Z,10.20
2019-04-10T07:36:56.059Z,10.20
2019-04-10T07:39:28.093Z,10.40
2019-04-10T07:41:57.732Z,10.60
2019-04-10T07:44:27.190Z,10.80
2019-04-10T07:46:59.067Z,11.10
2019-04-10T07:49:31.060Z,11.30
2019-04-10T07:51:59.046Z,11.50
2019-04-10T07:54:28.855Z,11.70
2019-04-10T07:56:58.228Z,11.80
2019-04-10T07:59:27.610Z,12.00
2019-04-10T08:01:58.008Z,12.10
2019-04-10T08:04:27.432Z,12.10
2019-04-10T08:06:56.834Z,12.20
2019-04-10T08:09:26.877Z,12.30
2019-04-10T08:11:56.747Z,12.50
2019-04-10T08:14:27.432Z,12.50
2019-04-10T08:16:57.418Z,12.70
2019-04-10T08:19:28.180Z,12.90
2019-04-10T08:21:57.989Z,13.00
2019-04-10T08:24:28.040Z,13.20
2019-04-10T08:26:57.520Z,13.40
2019-04-10T08:29:27.037Z,13.60
2019-04-10T08:31:56.894Z,13.70
2019-04-10T08:34:26.258Z,13.80
2019-04-10T08:36:56.820Z,14.00
2019-04-10T08:39:33.920Z,14.20
2019-04-10T08:41:57.909Z,14.30
2019-04-10T08:44:27.795Z,14.40
2019-04-10T08:46:58.161Z,14.40
2019-04-10T08:49:28.306Z,14.40
2019-04-10T08:51:57.929Z,14.30
2019-04-10T08:54:28.131Z,14.20
2019-04-10T08:56:57.606Z,14.10
2019-04-10T08:59:27.799Z,14.00
2019-04-10T09:01:57.751Z,14.10
2019-04-10T09:04:28.748Z,14.10
2019-04-10T09:07:00.957Z,14.10
2019-04-10T09:09:29.935Z,14.10
2019-04-10T09:11:59.826Z,14.10
2019-04-10T09:14:29.624Z,14.10
2019-04-10T09:16:59.166Z,14.10
2019-04-10T09:19:29.990Z,14.00
2019-04-10T09:21:59.628Z,14.00
2019-04-10T09:24:29.993Z,14.00
2019-04-10T09:27:00.527Z,14.00
2019-04-10T09:29:30.004Z,13.90
2019-04-10T09:31:59.398Z,13.80
2019-04-10T09:34:29.030Z,13.60
2019-04-10T09:36:59.816Z,13.50
2019-04-10T09:39:29.593Z,13.30
2019-04-10T09:41:58.991Z,13.20
2019-04-10T09:44:28.337Z,13.00
2019-04-10T09:46:57.977Z,12.90
2019-04-10T09:49:37.666Z,12.80
2019-04-10T09:51:59.175Z,12.70
2019-04-10T09:54:28.565Z,12.70
2019-04-10T09:56:59.056Z,12.70
2019-04-10T09:59:35.917Z,12.70
2019-04-10T10:02:00.531Z,12.70
2019-04-10T10:04:29.871Z,12.80
2019-04-10T10:06:59.832Z,12.80
2019-04-10T10:09:30.602Z,12.80
2019-04-10T10:12:01.082Z,12.90
2019-04-10T10:14:33.256Z,13.00
2019-04-10T10:17:01.955Z,13.00
2019-04-10T10:19:32.196Z,13.20
2019-04-10T10:22:03.605Z,13.30
2019-04-10T10:24:33.002Z,13.40
2019-04-10T10:27:02.359Z,13.50
2019-04-10T10:29:31.729Z,13.60
2019-04-10T10:32:02.479Z,13.60
2019-04-10T10:34:32.436Z,13.70
2019-04-10T10:37:03.623Z,13.70
2019-04-10T10:39:34.926Z,13.80
2019-04-10T10:42:05.494Z,13.90
2019-04-10T10:44:36.189Z,13.90
2019-04-10T10:47:06.245Z,14.00
2019-04-10T10:49:36.624Z,14.00
2019-04-10T10:52:07.072Z,14.00
2019-04-10T10:54:36.981Z,14.00
2019-04-10T10:57:06.969Z,14.00
2019-04-10T10:59:37.742Z,14.00
2019-04-10T11:02:08.554Z,13.90
2019-04-10T11:04:38.021Z,13.90
2019-04-10T11:07:08.547Z,13.90
2019-04-10T11:09:40.110Z,14.00
2019-04-10T11:12:12.177Z,14.00
2019-04-10T11:14:41.697Z,14.00
2019-04-10T11:17:11.909Z,14.00
2019-04-10T11:19:41.707Z,14.00
2019-04-10T11:22:12.597Z,14.10
2019-04-10T11:24:43.422Z,14.10
2019-04-10T11:27:14.297Z,14.20
2019-04-10T11:29:45.403Z,14.20
2019-04-10T11:32:15.500Z,14.30
2019-04-10T11:34:44.930Z,14.40
2019-04-10T11:37:24.126Z,14.50
2019-04-10T11:39:47.633Z,14.50
2019-04-10T11:42:18.318Z,14.60
2019-04-10T11:44:49.331Z,14.70
2019-04-10T11:47:20.023Z,14.80
2019-04-10T11:49:49.985Z,14.90
2019-04-10T11:52:30.744Z,15.00
2019-04-10T11:54:50.469Z,15.00
2019-04-10T11:57:20.560Z,15.10
2019-04-10T11:59:50.952Z,15.20
2019-04-10T12:02:24.838Z,15.20
2019-04-10T12:04:56.989Z,15.30
2019-04-10T12:07:55.105Z,15.30
2019-04-10T12:12:25.908Z,15.40
2019-04-10T12:14:56.217Z,15.40
2019-04-10T12:17:25.690Z,15.40
2019-04-10T12:19:55.034Z,15.40
2019-04-10T12:22:24.409Z,15.40
2019-04-10T12:24:54.352Z,15.40
2019-04-10T12:27:23.744Z,15.30
2019-04-10T12:29:53.205Z,15.30
2019-04-10T12:32:23.036Z,15.30
2019-04-10T12:34:52.812Z,15.30
2019-04-10T12:37:23.565Z,15.30
2019-04-10T12:39:53.052Z,15.30
2019-04-10T12:42:22.418Z,15.20
2019-04-10T12:44:51.799Z,15.20
2019-04-10T12:47:21.767Z,15.20
2019-04-10T12:49:51.914Z,15.20
2019-04-10T12:52:22.716Z,15.10
2019-04-10T12:54:53.190Z,15.20
2019-04-10T12:57:23.115Z,15.20
2019-04-10T12:59:59.395Z,15.30
2019-04-10T13:02:23.763Z,15.30
2019-04-10T13:04:54.618Z,15.30
2019-04-10T13:07:23.973Z,15.40
2019-04-10T13:09:53.939Z,15.40
2019-04-10T13:12:23.464Z,15.40
2019-04-10T13:14:52.865Z,15.40
2019-04-10T13:17:22.683Z,15.40
2019-04-10T13:19:52.086Z,15.30
2019-04-10T13:22:22.295Z,15.30
2019-04-10T13:24:52.098Z,15.30
2019-04-10T13:27:21.514Z,15.30
2019-04-10T13:29:50.887Z,15.30
2019-04-10T13:32:20.856Z,15.30
2019-04-10T13:34:51.274Z,15.30
2019-04-10T13:37:20.693Z,15.30
2019-04-10T13:39:50.968Z,15.20
2019-04-10T13:42:21.038Z,15.20
2019-04-10T13:44:50.844Z,15.10
2019-04-10T13:47:21.704Z,15.00
2019-04-10T13:49:51.233Z,14.90
2019-04-10T13:52:21.391Z,14.90
2019-04-10T13:54:51.056Z,14.80
2019-04-10T13:57:20.520Z,14.70
2019-04-10T13:59:50.102Z,14.70
2019-04-10T14:02:21.511Z,14.70
2019-04-10T14:04:51.358Z,14.70
2019-04-10T14:07:22.015Z,14.70
2019-04-10T14:09:52.482Z,14.70
2019-04-10T14:12:22.940Z,14.70
2019-04-10T14:14:53.060Z,14.60
2019-04-10T14:17:23.679Z,14.60
2019-04-10T14:19:54.133Z,14.60
2019-04-10T14:22:23.896Z,14.60
2019-04-10T14:24:53.759Z,14.60
2019-04-10T14:27:24.781Z,14.60
2019-04-10T14:29:54.599Z,14.60
2019-04-10T14:32:26.016Z,14.60
2019-04-10T14:34:55.443Z,14.50
2019-04-10T14:37:25.488Z,14.50
2019-04-10T14:39:55.766Z,14.50
2019-04-10T14:42:26.549Z,14.50
2019-04-10T14:44:57.165Z,14.50
2019-04-10T14:47:27.702Z,14.50
2019-04-10T14:49:58.032Z,14.50
2019-04-10T14:52:27.608Z,14.50
2019-04-10T14:54:57.010Z,14.50
2019-04-10T14:57:26.647Z,14.50
2019-04-10T14:59:56.182Z,14.60
2019-04-10T15:02:26.371Z,14.60
2019-04-10T15:04:55.840Z,14.70
2019-04-10T15:07:25.216Z,14.70
2019-04-10T15:09:54.599Z,14.80
2019-04-10T15:12:24.696Z,14.60
2019-04-10T15:14:54.419Z,14.60
2019-04-10T15:17:25.155Z,14.50
2019-04-10T15:19:54.638Z,14.50
2019-04-10T15:22:25.418Z,14.40
2019-04-10T15:24:54.926Z,14.30
2019-04-10T15:27:25.018Z,14.30
2019-04-10T15:29:54.724Z,14.30
2019-04-10T15:32:25.269Z,14.20
2019-04-10T15:34:55.797Z,14.20
2019-04-10T15:37:27.150Z,14.20
2019-04-10T15:39:56.526Z,14.20
2019-04-10T15:42:25.935Z,14.10
2019-04-10T15:44:55.292Z,14.10
2019-04-10T15:47:24.942Z,14.10
2019-04-10T15:49:54.670Z,14.10
2019-04-10T15:52:24.039Z,14.10
2019-04-10T15:54:55.336Z,14.20
2019-04-10T15:57:25.340Z,14.20
2019-04-10T15:59:54.733Z,14.20
2019-04-10T16:02:24.100Z,14.20
2019-04-10T16:04:53.481Z,14.20
2019-04-10T16:07:23.125Z,14.20
2019-04-10T16:09:56.171Z,14.20
2019-04-10T16:12:25.333Z,14.20
2019-04-10T16:14:55.060Z,14.20
2019-04-10T16:17:35.009Z,14.10
2019-04-10T16:20:27.357Z,14.10
2019-04-10T16:23:00.896Z,14.10
2019-04-10T16:25:30.279Z,14.00
2019-04-10T16:28:02.025Z,14.00
2019-04-10T16:30:32.992Z,13.90
2019-04-10T16:33:02.891Z,13.90
2019-04-10T16:35:35.237Z,13.90
2019-04-10T16:38:05.669Z,13.80
2019-04-10T16:40:36.586Z,13.80
2019-04-10T16:43:07.858Z,13.70
2019-04-10T16:45:38.540Z,13.70
2019-04-10T16:48:08.655Z,13.60
2019-04-10T16:50:38.435Z,13.60
2019-04-10T16:53:08.015Z,13.50
2019-04-10T16:55:37.382Z,13.50
2019-04-10T16:58:07.602Z,13.40
2019-04-10T17:00:37.701Z,13.30
2019-04-10T17:03:07.626Z,13.30
2019-04-10T17:05:37.657Z,13.30
2019-04-10T17:08:07.770Z,13.20
2019-04-10T17:10:38.606Z,13.10
2019-04-10T17:13:08.925Z,13.10
2019-04-10T17:15:39.866Z,13.00
2019-04-10T17:18:09.347Z,13.00
2019-04-10T17:20:39.040Z,12.90
2019-04-10T17:23:08.483Z,12.80
2019-04-10T17:25:38.158Z,12.80
2019-04-10T17:28:08.211Z,12.80
2019-04-10T17:30:38.095Z,12.70
2019-04-10T17:33:08.842Z,12.60
2019-04-10T17:35:38.323Z,12.60
2019-04-10T17:38:07.709Z,12.50
2019-04-10T17:40:45.816Z,12.50
2019-04-10T17:43:08.571Z,12.40
2019-04-10T17:45:38.714Z,12.30
2019-04-10T17:48:09.387Z,12.30
2019-04-10T17:50:39.492Z,12.30
2019-04-10T17:53:09.279Z,12.30
2019-04-10T17:55:39.874Z,12.30
2019-04-10T17:58:09.645Z,12.30
2019-04-10T18:00:43.697Z,12.30
2019-04-10T18:03:17.603Z,12.30
2019-04-10T18:05:44.668Z,12.30
2019-04-10T18:08:14.649Z,12.30
2019-04-10T18:10:49.536Z,12.20
2019-04-10T18:13:15.587Z,12.10
2019-04-10T18:15:46.220Z,12.00
2019-04-10T18:18:15.905Z,11.90
2019-04-10T18:20:46.320Z,11.80
2019-04-10T18:23:17.538Z,11.70
2019-04-10T18:25:46.927Z,11.60
2019-04-10T18:28:17.191Z,11.60
2019-04-10T18:30:46.685Z,11.50
2019-04-10T18:33:16.126Z,11.40
2019-04-10T18:35:45.511Z,11.40
2019-04-10T18:38:15.726Z,11.40
2019-04-10T18:40:53.085Z,11.40
2019-04-10T18:43:16.356Z,11.30
2019-04-10T18:45:58.360Z,11.20
2019-04-10T18:48:16.877Z,11.10
2019-04-10T18:50:47.273Z,11.00
2019-04-10T18:53:17.146Z,10.80
2019-04-10T18:55:46.834Z,10.70
2019-04-10T18:58:17.841Z,10.70
2019-04-10T19:00:58.823Z,10.60
2019-04-10T19:03:54.680Z,10.50
2019-04-10T19:06:25.114Z,10.40
2019-04-10T19:09:07.716Z,10.30
2019-04-10T19:11:29.060Z,10.20
2019-04-10T19:13:57.335Z,10.10
2019-04-10T19:16:27.945Z,10.00
2019-04-10T19:18:57.373Z,9.90
2019-04-10T19:21:27.236Z,9.80
2019-04-10T19:23:57.358Z,9.70
2019-04-10T19:26:27.415Z,9.60
2019-04-10T19:28:57.128Z,9.60
2019-04-10T19:31:27.932Z,9.50
2019-04-10T19:33:57.597Z,9.40
2019-04-10T19:36:27.942Z,9.30
2019-04-10T19:38:57.895Z,9.30
2019-04-10T19:41:32.851Z,9.20
2019-04-10T19:43:58.931Z,9.10
2019-04-10T19:46:29.285Z,9.00
2019-04-10T19:48:59.675Z,9.00
2019-04-10T19:51:30.211Z,8.90
2019-04-10T19:54:02.651Z,8.90
2019-04-10T19:56:30.978Z,8.80
2019-04-10T19:59:00.754Z,8.70
2019-04-10T20:01:31.433Z,8.70
2019-04-10T20:04:02.067Z,8.60
2019-04-10T20:06:32.218Z,8.60
2019-04-10T20:09:01.649Z,8.60
2019-04-10T20:11:37.568Z,8.60
2019-04-10T20:14:02.131Z,8.50
2019-04-10T20:16:31.501Z,8.50
2019-04-10T20:19:01.348Z,8.50
2019-04-10T20:21:30.822Z,8.40
2019-04-10T20:24:00.653Z,8.40
2019-04-10T20:26:30.072Z,8.40
2019-04-10T20:28:59.441Z,8.40
2019-04-10T20:31:31.139Z,8.30
2019-04-10T20:34:00.627Z,8.30
2019-04-10T20:36:31.059Z,8.30
2019-04-10T20:39:00.996Z,8.20
2019-04-10T20:41:30.848Z,8.20
2019-04-10T20:44:00.234Z,8.10
2019-04-10T20:46:30.513Z,8.10
2019-04-10T20:49:00.605Z,8.00
2019-04-10T20:51:30.509Z,8.00
2019-04-10T20:54:00.213Z,8.00
2019-04-10T20:56:30.551Z,8.00
2019-04-10T20:59:00.107Z,8.00
2019-04-10T21:01:29.602Z,7.90
2019-04-10T21:03:59.255Z,7.90
2019-04-10T21:06:29.626Z,7.90
2019-04-10T21:08:59.154Z,7.90
2019-04-10T21:11:29.226Z,7.90
2019-04-10T21:13:58.979Z,7.80
2019-04-10T21:16:28.429Z,7.80
2019-04-10T21:18:58.182Z,7.80
2019-04-10T21:21:27.554Z,7.80
2019-04-10T21:23:56.932Z,7.80
2019-04-10T21:26:26.310Z,7.80
2019-04-10T21:28:55.833Z,7.70
2019-04-10T21:31:43.442Z,7.80
2019-04-10T21:34:20.021Z,7.70
2019-04-10T21:36:51.222Z,7.70
2019-04-10T21:39:21.220Z,7.70
2019-04-10T21:41:50.872Z,7.70
2019-04-10T21:44:20.429Z,7.70
2019-04-10T21:46:49.835Z,7.70
2019-04-10T21:49:19.842Z,7.60
2019-04-10T21:51:50.017Z,7.60
2019-04-10T21:54:20.447Z,7.60
2019-04-10T21:56:51.407Z,7.50
2019-04-10T21:59:20.832Z,7.50
2019-04-10T22:01:51.444Z,7.50
2019-04-10T22:04:21.041Z,7.40
2019-04-10T22:06:52.094Z,7.30
2019-04-10T22:09:31.799Z,7.30
2019-04-10T22:12:03.728Z,7.20
2019-04-10T22:14:33.551Z,7.20
2019-04-10T22:17:03.748Z,7.10
2019-04-10T22:19:35.326Z,7.10
2019-04-10T22:22:04.299Z,7.00
2019-04-10T22:24:34.509Z,7.00
2019-04-10T22:27:05.105Z,7.00
2019-04-10T22:29:34.793Z,7.00
2019-04-10T22:32:04.337Z,7.00
2019-04-10T22:34:34.245Z,7.00
2019-04-10T22:37:04.272Z,6.90
2019-04-10T22:39:33.636Z,6.90
2019-04-10T22:42:03.360Z,6.90
2019-04-10T22:44:39.187Z,6.90
2019-04-10T22:47:05.087Z,6.80
2019-04-10T22:49:34.961Z,6.70
2019-04-10T22:52:04.736Z,6.70
2019-04-10T22:54:34.608Z,6.60
2019-04-10T22:57:04.739Z,6.60
2019-04-10T22:59:34.862Z,6.50
2019-04-10T23:02:08.830Z,6.50
2019-04-10T23:04:35.364Z,6.40
2019-04-10T23:07:05.919Z,6.40
2019-04-10T23:09:36.074Z,6.30
2019-04-10T23:12:05.987Z,6.30
2019-04-10T23:14:36.521Z,6.30
2019-04-10T23:17:05.899Z,6.30
2019-04-10T23:19:36.322Z,6.40
2019-04-10T23:22:07.643Z,6.40
2019-04-10T23:24:37.962Z,6.40
2019-04-10T23:27:07.386Z,6.40
2019-04-10T23:29:36.736Z,6.40
2019-04-10T23:32:06.108Z,6.40
2019-04-10T23:34:35.473Z,6.40
2019-04-10T23:37:05.082Z,6.50
2019-04-10T23:39:34.477Z,6.50
2019-04-10T23:42:04.883Z,6.50
2019-04-10T23:44:35.965Z,6.50
2019-04-10T23:47:05.420Z,6.50
2019-04-10T23:49:35.360Z,6.50
2019-04-10T23:52:04.967Z,6.50
2019-04-10T23:54:35.261Z,6.50
2019-04-10T23:57:05.192Z,6.50
2019-04-10T23:59:35.020Z,6.50
